sensor_id;sensor_type;location;lat;lon;timestamp;temperature;humidity
20670;DHT22;10494;50.868;4.180;2023-06-22T00:00:44;20.70;99.90
20670;DHT22;10494;50.868;4.180;2023-06-22T00:03:10;20.60;99.90
20670;DHT22;10494;50.868;4.180;2023-06-22T00:05:35;20.60;99.90
20670;DHT22;10494;50.868;4.180;2023-06-22T00:08:04;20.60;99.90
20670;DHT22;10494;50.868;4.180;2023-06-22T00:10:30;20.60;99.90
20670;DHT22;10494;50.868;4.180;2023-06-22T00:12:56;20.50;99.90
20670;DHT22;10494;50.868;4.180;2023-06-22T00:15:22;20.50;99.90
20670;DHT22;10494;50.868;4.180;2023-06-22T00:17:49;20.50;99.90
20670;DHT22;10494;50.868;4.180;2023-06-22T00:20:14;20.50;99.90
20670;DHT22;10494;50.868;4.180;2023-06-22T00:22:40;20.60;99.90
20670;DHT22;10494;50.868;4.180;2023-06-22T00:25:07;20.60;99.90
20670;DHT22;10494;50.868;4.180;2023-06-22T00:27:33;20.60;99.90
20670;DHT22;10494;50.868;4.180;2023-06-22T00:29:58;20.60;99.90
20670;DHT22;10494;50.868;4.180;2023-06-22T00:32:24;20.50;99.90
20670;DHT22;10494;50.868;4.180;2023-06-22T00:34:49;20.50;99.90
20670;DHT22;10494;50.868;4.180;2023-06-22T00:37:16;20.40;99.90
20670;DHT22;10494;50.868;4.180;2023-06-22T00:39:42;20.40;99.90
20670;DHT22;10494;50.868;4.180;2023-06-22T00:42:08;20.30;99.90
20670;DHT22;10494;50.868;4.180;2023-06-22T00:44:35;20.20;99.90
20670;DHT22;10494;50.868;4.180;2023-06-22T00:47:01;20.20;99.90
20670;DHT22;10494;50.868;4.180;2023-06-22T00:49:27;20.20;99.90
20670;DHT22;10494;50.868;4.180;2023-06-22T00:51:52;20.20;99.90
20670;DHT22;10494;50.868;4.180;2023-06-22T00:54:18;20.20;99.90
20670;DHT22;10494;50.868;4.180;2023-06-22T00:56:53;20.20;99.90
20670;DHT22;10494;50.868;4.180;2023-06-22T00:59:21;20.20;99.90
20670;DHT22;10494;50.868;4.180;2023-06-22T01:01:46;20.10;99.90
20670;DHT22;10494;50.868;4.180;2023-06-22T01:04:12;20.10;99.90
20670;DHT22;10494;50.868;4.180;2023-06-22T01:06:54;20.10;99.90
20670;DHT22;10494;50.868;4.180;2023-06-22T01:09:27;20.10;99.90
20670;DHT22;10494;50.868;4.180;2023-06-22T01:11:57;20.10;99.90
20670;DHT22;10494;50.868;4.180;2023-06-22T01:14:24;20.20;99.90
20670;DHT22;10494;50.868;4.180;2023-06-22T01:16:54;20.20;99.90
20670;DHT22;10494;50.868;4.180;2023-06-22T01:19:37;20.20;99.90
20670;DHT22;10494;50.868;4.180;2023-06-22T01:22:07;20.20;99.90
20670;DHT22;10494;50.868;4.180;2023-06-22T01:30:07;20.00;99.90
20670;DHT22;10494;50.868;4.180;2023-06-22T01:32:38;20.00;99.90
20670;DHT22;10494;50.868;4.180;2023-06-22T01:35:06;20.00;99.90
20670;DHT22;10494;50.868;4.180;2023-06-22T01:37:34;20.00;99.90
20670;DHT22;10494;50.868;4.180;2023-06-22T01:40:01;20.00;99.90
20670;DHT22;10494;50.868;4.180;2023-06-22T01:42:28;20.00;99.90
20670;DHT22;10494;50.868;4.180;2023-06-22T01:44:54;20.00;99.90
20670;DHT22;10494;50.868;4.180;2023-06-22T01:47:22;20.00;99.90
20670;DHT22;10494;50.868;4.180;2023-06-22T01:49:48;19.90;99.90
20670;DHT22;10494;50.868;4.180;2023-06-22T01:52:15;19.90;99.90
20670;DHT22;10494;50.868;4.180;2023-06-22T01:54:41;19.90;99.90
20670;DHT22;10494;50.868;4.180;2023-06-22T01:57:07;19.90;99.90
20670;DHT22;10494;50.868;4.180;2023-06-22T01:59:44;19.90;99.90
20670;DHT22;10494;50.868;4.180;2023-06-22T02:02:13;19.90;99.90
20670;DHT22;10494;50.868;4.180;2023-06-22T02:04:44;19.90;99.90
20670;DHT22;10494;50.868;4.180;2023-06-22T02:07:14;19.90;99.90
20670;DHT22;10494;50.868;4.180;2023-06-22T02:09:44;19.90;99.90
20670;DHT22;10494;50.868;4.180;2023-06-22T02:12:12;19.90;99.90
20670;DHT22;10494;50.868;4.180;2023-06-22T02:14:39;19.90;99.90
20670;DHT22;10494;50.868;4.180;2023-06-22T02:17:05;19.90;99.90
20670;DHT22;10494;50.868;4.180;2023-06-22T02:19:36;20.00;99.90
20670;DHT22;10494;50.868;4.180;2023-06-22T02:22:02;20.00;99.90
20670;DHT22;10494;50.868;4.180;2023-06-22T02:24:27;20.00;99.90
20670;DHT22;10494;50.868;4.180;2023-06-22T02:27:00;20.00;99.90
20670;DHT22;10494;50.868;4.180;2023-06-22T02:29:26;20.00;99.90
20670;DHT22;10494;50.868;4.180;2023-06-22T02:31:53;20.10;99.90
20670;DHT22;10494;50.868;4.180;2023-06-22T02:34:18;20.10;99.90
20670;DHT22;10494;50.868;4.180;2023-06-22T02:36:48;19.90;99.90
20670;DHT22;10494;50.868;4.180;2023-06-22T02:39:23;19.60;99.90
20670;DHT22;10494;50.868;4.180;2023-06-22T02:41:52;19.60;99.90
20670;DHT22;10494;50.868;4.180;2023-06-22T02:44:18;19.70;99.90
20670;DHT22;10494;50.868;4.180;2023-06-22T02:46:44;19.70;99.90
20670;DHT22;10494;50.868;4.180;2023-06-22T02:49:10;19.80;99.90
20670;DHT22;10494;50.868;4.180;2023-06-22T02:51:39;19.80;99.90
20670;DHT22;10494;50.868;4.180;2023-06-22T02:54:05;19.80;99.90
20670;DHT22;10494;50.868;4.180;2023-06-22T02:56:31;19.90;99.90
20670;DHT22;10494;50.868;4.180;2023-06-22T02:58:58;19.90;99.90
20670;DHT22;10494;50.868;4.180;2023-06-22T03:01:27;19.90;99.90
20670;DHT22;10494;50.868;4.180;2023-06-22T03:03:53;20.00;99.90
20670;DHT22;10494;50.868;4.180;2023-06-22T03:06:20;20.00;99.90
20670;DHT22;10494;50.868;4.180;2023-06-22T03:08:49;19.60;99.90
20670;DHT22;10494;50.868;4.180;2023-06-22T03:11:15;19.40;99.90
20670;DHT22;10494;50.868;4.180;2023-06-22T03:13:41;19.30;99.90
20670;DHT22;10494;50.868;4.180;2023-06-22T03:16:06;19.20;99.90
20670;DHT22;10494;50.868;4.180;2023-06-22T03:18:33;19.10;99.90
20670;DHT22;10494;50.868;4.180;2023-06-22T03:20:59;19.10;99.90
20670;DHT22;10494;50.868;4.180;2023-06-22T03:23:25;19.20;99.90
20670;DHT22;10494;50.868;4.180;2023-06-22T03:25:51;19.30;99.90
20670;DHT22;10494;50.868;4.180;2023-06-22T03:28:16;19.40;99.90
20670;DHT22;10494;50.868;4.180;2023-06-22T03:30:43;19.50;99.90
20670;DHT22;10494;50.868;4.180;2023-06-22T03:33:08;19.50;99.90
20670;DHT22;10494;50.868;4.180;2023-06-22T03:35:34;19.50;99.90
20670;DHT22;10494;50.868;4.180;2023-06-22T03:37:59;19.50;99.90
20670;DHT22;10494;50.868;4.180;2023-06-22T03:40:25;19.50;99.90
20670;DHT22;10494;50.868;4.180;2023-06-22T03:42:50;19.50;99.90
20670;DHT22;10494;50.868;4.180;2023-06-22T03:45:16;19.50;99.90
20670;DHT22;10494;50.868;4.180;2023-06-22T03:47:41;19.50;99.90
20670;DHT22;10494;50.868;4.180;2023-06-22T03:50:07;19.50;99.90
20670;DHT22;10494;50.868;4.180;2023-06-22T03:52:33;19.50;99.90
20670;DHT22;10494;50.868;4.180;2023-06-22T03:54:59;19.50;99.90
20670;DHT22;10494;50.868;4.180;2023-06-22T03:57:24;19.50;99.90
20670;DHT22;10494;50.868;4.180;2023-06-22T03:59:50;19.50;99.90
20670;DHT22;10494;50.868;4.180;2023-06-22T04:02:15;19.50;99.90
20670;DHT22;10494;50.868;4.180;2023-06-22T04:04:41;19.50;99.90
20670;DHT22;10494;50.868;4.180;2023-06-22T04:07:07;19.60;99.90
20670;DHT22;10494;50.868;4.180;2023-06-22T04:09:33;19.60;99.90
20670;DHT22;10494;50.868;4.180;2023-06-22T04:11:58;19.70;99.90
20670;DHT22;10494;50.868;4.180;2023-06-22T04:14:24;19.70;99.90
20670;DHT22;10494;50.868;4.180;2023-06-22T04:16:49;19.70;99.90
20670;DHT22;10494;50.868;4.180;2023-06-22T04:19:15;19.80;99.90
20670;DHT22;10494;50.868;4.180;2023-06-22T04:21:43;19.90;99.90
20670;DHT22;10494;50.868;4.180;2023-06-22T04:24:10;20.00;99.90
20670;DHT22;10494;50.868;4.180;2023-06-22T04:26:36;20.00;99.90
20670;DHT22;10494;50.868;4.180;2023-06-22T04:29:03;20.00;99.90
20670;DHT22;10494;50.868;4.180;2023-06-22T04:31:32;20.10;99.90
20670;DHT22;10494;50.868;4.180;2023-06-22T04:34:03;20.20;99.90
20670;DHT22;10494;50.868;4.180;2023-06-22T04:36:36;20.30;99.90
20670;DHT22;10494;50.868;4.180;2023-06-22T04:39:12;20.30;99.90
20670;DHT22;10494;50.868;4.180;2023-06-22T04:41:40;20.40;99.90
20670;DHT22;10494;50.868;4.180;2023-06-22T04:44:09;20.30;99.90
20670;DHT22;10494;50.868;4.180;2023-06-22T04:46:35;20.30;99.90
20670;DHT22;10494;50.868;4.180;2023-06-22T04:49:05;20.30;99.90
20670;DHT22;10494;50.868;4.180;2023-06-22T04:51:31;20.30;99.90
20670;DHT22;10494;50.868;4.180;2023-06-22T04:53:57;20.30;99.90
20670;DHT22;10494;50.868;4.180;2023-06-22T04:56:26;20.30;99.90
20670;DHT22;10494;50.868;4.180;2023-06-22T04:58:54;20.30;99.90
20670;DHT22;10494;50.868;4.180;2023-06-22T05:01:23;20.40;99.90
20670;DHT22;10494;50.868;4.180;2023-06-22T05:03:49;20.40;99.90
20670;DHT22;10494;50.868;4.180;2023-06-22T05:06:15;20.40;99.90
20670;DHT22;10494;50.868;4.180;2023-06-22T05:08:41;20.50;99.90
20670;DHT22;10494;50.868;4.180;2023-06-22T05:11:06;20.30;99.90
20670;DHT22;10494;50.868;4.180;2023-06-22T05:13:32;20.10;99.90
20670;DHT22;10494;50.868;4.180;2023-06-22T05:15:58;19.90;99.90
20670;DHT22;10494;50.868;4.180;2023-06-22T05:18:30;20.10;99.90
20670;DHT22;10494;50.868;4.180;2023-06-22T05:20:57;20.30;99.90
20670;DHT22;10494;50.868;4.180;2023-06-22T05:23:23;20.50;99.90
20670;DHT22;10494;50.868;4.180;2023-06-22T05:25:49;20.70;99.90
20670;DHT22;10494;50.868;4.180;2023-06-22T05:28:14;20.80;99.90
20670;DHT22;10494;50.868;4.180;2023-06-22T05:30:40;20.40;99.90
20670;DHT22;10494;50.868;4.180;2023-06-22T05:33:06;20.30;99.90
20670;DHT22;10494;50.868;4.180;2023-06-22T05:35:32;20.00;99.90
20670;DHT22;10494;50.868;4.180;2023-06-22T05:37:58;19.70;99.90
20670;DHT22;10494;50.868;4.180;2023-06-22T05:40:23;19.60;99.90
20670;DHT22;10494;50.868;4.180;2023-06-22T05:42:49;19.80;99.90
20670;DHT22;10494;50.868;4.180;2023-06-22T05:45:14;20.10;99.90
20670;DHT22;10494;50.868;4.180;2023-06-22T05:47:40;20.30;99.90
20670;DHT22;10494;50.868;4.180;2023-06-22T05:50:06;20.50;99.90
20670;DHT22;10494;50.868;4.180;2023-06-22T05:52:34;20.90;99.90
20670;DHT22;10494;50.868;4.180;2023-06-22T05:54:59;20.90;99.90
20670;DHT22;10494;50.868;4.180;2023-06-22T05:57:25;20.70;99.90
20670;DHT22;10494;50.868;4.180;2023-06-22T05:59:50;20.60;99.90
20670;DHT22;10494;50.868;4.180;2023-06-22T06:02:17;20.70;99.90
20670;DHT22;10494;50.868;4.180;2023-06-22T06:04:42;20.80;99.90
20670;DHT22;10494;50.868;4.180;2023-06-22T06:07:08;20.50;99.90
20670;DHT22;10494;50.868;4.180;2023-06-22T06:09:33;20.50;99.90
20670;DHT22;10494;50.868;4.180;2023-06-22T06:11:59;20.30;99.90
20670;DHT22;10494;50.868;4.180;2023-06-22T06:14:25;20.10;99.90
20670;DHT22;10494;50.868;4.180;2023-06-22T06:16:50;19.80;99.90
20670;DHT22;10494;50.868;4.180;2023-06-22T06:19:16;19.60;99.90
20670;DHT22;10494;50.868;4.180;2023-06-22T06:21:41;19.60;99.90
20670;DHT22;10494;50.868;4.180;2023-06-22T06:24:07;19.70;99.90
20670;DHT22;10494;50.868;4.180;2023-06-22T06:26:32;19.60;99.90
20670;DHT22;10494;50.868;4.180;2023-06-22T06:29:01;19.60;99.90
20670;DHT22;10494;50.868;4.180;2023-06-22T06:31:28;19.60;99.90
20670;DHT22;10494;50.868;4.180;2023-06-22T06:33:54;20.00;99.90
20670;DHT22;10494;50.868;4.180;2023-06-22T06:36:20;20.10;99.90
20670;DHT22;10494;50.868;4.180;2023-06-22T06:38:46;19.90;99.90
20670;DHT22;10494;50.868;4.180;2023-06-22T06:41:16;19.80;99.90
20670;DHT22;10494;50.868;4.180;2023-06-22T06:43:41;19.60;99.90
20670;DHT22;10494;50.868;4.180;2023-06-22T06:46:08;19.50;99.90
20670;DHT22;10494;50.868;4.180;2023-06-22T06:48:34;19.60;99.90
20670;DHT22;10494;50.868;4.180;2023-06-22T06:51:00;19.60;99.90
20670;DHT22;10494;50.868;4.180;2023-06-22T06:53:26;19.50;99.90
20670;DHT22;10494;50.868;4.180;2023-06-22T06:55:52;19.50;99.90
20670;DHT22;10494;50.868;4.180;2023-06-22T06:58:17;19.60;99.90
20670;DHT22;10494;50.868;4.180;2023-06-22T07:00:43;19.70;99.90
20670;DHT22;10494;50.868;4.180;2023-06-22T07:03:09;19.80;99.90
20670;DHT22;10494;50.868;4.180;2023-06-22T07:05:35;19.80;99.90
20670;DHT22;10494;50.868;4.180;2023-06-22T07:08:01;19.70;99.90
20670;DHT22;10494;50.868;4.180;2023-06-22T07:10:27;19.70;99.90
20670;DHT22;10494;50.868;4.180;2023-06-22T07:12:53;19.60;99.90
20670;DHT22;10494;50.868;4.180;2023-06-22T07:15:18;19.80;99.90
20670;DHT22;10494;50.868;4.180;2023-06-22T07:17:44;20.20;99.90
20670;DHT22;10494;50.868;4.180;2023-06-22T07:20:10;20.60;99.90
20670;DHT22;10494;50.868;4.180;2023-06-22T07:22:43;20.70;99.90
20670;DHT22;10494;50.868;4.180;2023-06-22T07:25:09;20.60;99.90
20670;DHT22;10494;50.868;4.180;2023-06-22T07:27:58;20.70;99.90
20670;DHT22;10494;50.868;4.180;2023-06-22T07:30:24;20.30;99.90
20670;DHT22;10494;50.868;4.180;2023-06-22T07:32:51;20.30;99.90
20670;DHT22;10494;50.868;4.180;2023-06-22T07:35:17;20.50;99.90
20670;DHT22;10494;50.868;4.180;2023-06-22T07:37:43;20.70;99.90
20670;DHT22;10494;50.868;4.180;2023-06-22T07:40:09;20.90;99.90
20670;DHT22;10494;50.868;4.180;2023-06-22T07:42:35;20.90;99.90
20670;DHT22;10494;50.868;4.180;2023-06-22T07:45:02;20.80;99.90
20670;DHT22;10494;50.868;4.180;2023-06-22T07:47:28;20.90;99.90
20670;DHT22;10494;50.868;4.180;2023-06-22T07:49:55;21.10;99.90
20670;DHT22;10494;50.868;4.180;2023-06-22T07:52:23;21.30;99.90
20670;DHT22;10494;50.868;4.180;2023-06-22T07:54:49;21.80;99.90
20670;DHT22;10494;50.868;4.180;2023-06-22T07:57:14;22.20;99.90
20670;DHT22;10494;50.868;4.180;2023-06-22T07:59:40;22.00;99.90
20670;DHT22;10494;50.868;4.180;2023-06-22T08:02:05;22.00;99.90
20670;DHT22;10494;50.868;4.180;2023-06-22T08:04:31;21.30;99.90
20670;DHT22;10494;50.868;4.180;2023-06-22T08:06:59;21.20;99.90
20670;DHT22;10494;50.868;4.180;2023-06-22T08:09:25;21.00;99.90
20670;DHT22;10494;50.868;4.180;2023-06-22T08:11:50;20.90;99.90
20670;DHT22;10494;50.868;4.180;2023-06-22T08:14:16;20.90;99.90
20670;DHT22;10494;50.868;4.180;2023-06-22T08:16:42;20.90;99.90
20670;DHT22;10494;50.868;4.180;2023-06-22T08:19:07;21.00;99.90
20670;DHT22;10494;50.868;4.180;2023-06-22T08:21:33;21.00;99.90
20670;DHT22;10494;50.868;4.180;2023-06-22T08:23:59;20.90;99.90
20670;DHT22;10494;50.868;4.180;2023-06-22T08:26:24;20.90;99.90
20670;DHT22;10494;50.868;4.180;2023-06-22T08:28:50;20.90;99.90
20670;DHT22;10494;50.868;4.180;2023-06-22T08:31:15;20.90;99.90
20670;DHT22;10494;50.868;4.180;2023-06-22T08:33:41;21.00;99.90
20670;DHT22;10494;50.868;4.180;2023-06-22T08:36:09;21.00;99.90
20670;DHT22;10494;50.868;4.180;2023-06-22T08:38:36;21.00;99.90
20670;DHT22;10494;50.868;4.180;2023-06-22T08:41:02;20.90;99.90
20670;DHT22;10494;50.868;4.180;2023-06-22T08:43:28;20.90;99.90
20670;DHT22;10494;50.868;4.180;2023-06-22T08:45:53;21.00;99.90
20670;DHT22;10494;50.868;4.180;2023-06-22T08:48:19;21.20;99.90
20670;DHT22;10494;50.868;4.180;2023-06-22T08:50:45;21.50;99.90
20670;DHT22;10494;50.868;4.180;2023-06-22T08:53:10;21.80;99.90
20670;DHT22;10494;50.868;4.180;2023-06-22T08:55:36;21.90;99.90
20670;DHT22;10494;50.868;4.180;2023-06-22T08:58:01;21.90;99.90
20670;DHT22;10494;50.868;4.180;2023-06-22T09:00:27;21.70;99.90
20670;DHT22;10494;50.868;4.180;2023-06-22T09:02:54;21.70;99.90
20670;DHT22;10494;50.868;4.180;2023-06-22T09:05:24;21.40;99.90
20670;DHT22;10494;50.868;4.180;2023-06-22T09:07:51;21.20;99.90
20670;DHT22;10494;50.868;4.180;2023-06-22T09:10:17;21.10;99.90
20670;DHT22;10494;50.868;4.180;2023-06-22T09:12:44;21.10;99.90
20670;DHT22;10494;50.868;4.180;2023-06-22T09:15:10;21.00;99.90
20670;DHT22;10494;50.868;4.180;2023-06-22T09:17:35;20.90;99.90
20670;DHT22;10494;50.868;4.180;2023-06-22T09:20:02;20.80;99.90
20670;DHT22;10494;50.868;4.180;2023-06-22T09:22:31;20.80;99.90
20670;DHT22;10494;50.868;4.180;2023-06-22T09:24:57;20.80;99.90
20670;DHT22;10494;50.868;4.180;2023-06-22T09:27:22;20.90;99.90
20670;DHT22;10494;50.868;4.180;2023-06-22T09:29:49;21.20;99.90
20670;DHT22;10494;50.868;4.180;2023-06-22T09:32:15;21.10;99.90
20670;DHT22;10494;50.868;4.180;2023-06-22T09:34:40;20.90;99.90
20670;DHT22;10494;50.868;4.180;2023-06-22T09:37:06;20.70;99.90
20670;DHT22;10494;50.868;4.180;2023-06-22T09:39:31;20.60;99.90
20670;DHT22;10494;50.868;4.180;2023-06-22T09:42:00;20.50;99.90
20670;DHT22;10494;50.868;4.180;2023-06-22T09:44:26;20.40;99.90
20670;DHT22;10494;50.868;4.180;2023-06-22T09:46:52;20.00;99.90
20670;DHT22;10494;50.868;4.180;2023-06-22T09:49:18;19.80;99.90
20670;DHT22;10494;50.868;4.180;2023-06-22T09:51:43;19.80;99.90
20670;DHT22;10494;50.868;4.180;2023-06-22T09:54:09;19.80;99.90
20670;DHT22;10494;50.868;4.180;2023-06-22T09:56:35;19.80;99.90
20670;DHT22;10494;50.868;4.180;2023-06-22T09:59:00;19.90;99.90
20670;DHT22;10494;50.868;4.180;2023-06-22T10:01:26;19.90;99.90
20670;DHT22;10494;50.868;4.180;2023-06-22T10:03:55;19.80;99.90
20670;DHT22;10494;50.868;4.180;2023-06-22T10:06:22;19.70;99.90
20670;DHT22;10494;50.868;4.180;2023-06-22T10:08:47;19.70;99.90
20670;DHT22;10494;50.868;4.180;2023-06-22T10:11:16;19.80;99.90
20670;DHT22;10494;50.868;4.180;2023-06-22T10:13:41;19.80;99.90
20670;DHT22;10494;50.868;4.180;2023-06-22T10:16:07;19.90;99.90
20670;DHT22;10494;50.868;4.180;2023-06-22T10:18:33;19.90;99.90
20670;DHT22;10494;50.868;4.180;2023-06-22T10:20:58;20.00;99.90
20670;DHT22;10494;50.868;4.180;2023-06-22T10:23:24;19.60;99.90
20670;DHT22;10494;50.868;4.180;2023-06-22T10:25:49;19.10;99.90
20670;DHT22;10494;50.868;4.180;2023-06-22T10:28:15;18.50;99.90
20670;DHT22;10494;50.868;4.180;2023-06-22T10:30:41;18.00;99.90
20670;DHT22;10494;50.868;4.180;2023-06-22T10:33:08;17.70;99.90
20670;DHT22;10494;50.868;4.180;2023-06-22T10:35:34;17.60;99.90
20670;DHT22;10494;50.868;4.180;2023-06-22T10:38:00;17.50;99.90
20670;DHT22;10494;50.868;4.180;2023-06-22T10:40:26;17.30;99.90
20670;DHT22;10494;50.868;4.180;2023-06-22T10:42:51;17.20;99.90
20670;DHT22;10494;50.868;4.180;2023-06-22T10:45:17;17.10;99.90
20670;DHT22;10494;50.868;4.180;2023-06-22T10:47:43;17.00;99.90
20670;DHT22;10494;50.868;4.180;2023-06-22T10:50:08;17.00;99.90
20670;DHT22;10494;50.868;4.180;2023-06-22T10:52:34;16.90;99.90
20670;DHT22;10494;50.868;4.180;2023-06-22T10:55:00;17.00;99.90
20670;DHT22;10494;50.868;4.180;2023-06-22T10:57:26;16.90;99.90
20670;DHT22;10494;50.868;4.180;2023-06-22T10:59:51;16.90;99.90
20670;DHT22;10494;50.868;4.180;2023-06-22T11:02:17;17.00;99.90
20670;DHT22;10494;50.868;4.180;2023-06-22T11:04:42;17.00;99.90
20670;DHT22;10494;50.868;4.180;2023-06-22T11:07:09;17.00;99.90
20670;DHT22;10494;50.868;4.180;2023-06-22T11:09:35;17.10;99.90
20670;DHT22;10494;50.868;4.180;2023-06-22T11:12:01;17.10;99.90
20670;DHT22;10494;50.868;4.180;2023-06-22T11:14:27;17.10;99.90
20670;DHT22;10494;50.868;4.180;2023-06-22T11:16:52;17.10;99.90
20670;DHT22;10494;50.868;4.180;2023-06-22T11:19:18;17.20;99.90
20670;DHT22;10494;50.868;4.180;2023-06-22T11:21:44;17.30;99.90
20670;DHT22;10494;50.868;4.180;2023-06-22T11:24:10;17.30;99.90
20670;DHT22;10494;50.868;4.180;2023-06-22T11:26:36;17.30;99.90
20670;DHT22;10494;50.868;4.180;2023-06-22T11:29:02;17.40;99.90
20670;DHT22;10494;50.868;4.180;2023-06-22T11:31:31;17.40;99.90
20670;DHT22;10494;50.868;4.180;2023-06-22T11:33:57;17.40;99.90
20670;DHT22;10494;50.868;4.180;2023-06-22T11:36:23;17.40;99.90
20670;DHT22;10494;50.868;4.180;2023-06-22T11:38:49;17.50;99.90
20670;DHT22;10494;50.868;4.180;2023-06-22T11:41:15;17.50;99.90
20670;DHT22;10494;50.868;4.180;2023-06-22T11:43:41;17.60;99.90
20670;DHT22;10494;50.868;4.180;2023-06-22T11:46:07;17.60;99.90
20670;DHT22;10494;50.868;4.180;2023-06-22T11:48:32;17.60;99.90
20670;DHT22;10494;50.868;4.180;2023-06-22T11:50:58;17.70;99.90
20670;DHT22;10494;50.868;4.180;2023-06-22T11:53:25;17.90;99.90
20670;DHT22;10494;50.868;4.180;2023-06-22T11:55:52;18.10;99.90
20670;DHT22;10494;50.868;4.180;2023-06-22T11:58:20;18.10;99.90
20670;DHT22;10494;50.868;4.180;2023-06-22T12:00:46;18.10;99.90
20670;DHT22;10494;50.868;4.180;2023-06-22T12:03:11;18.10;99.90
20670;DHT22;10494;50.868;4.180;2023-06-22T12:05:38;18.20;99.90
20670;DHT22;10494;50.868;4.180;2023-06-22T12:08:04;18.20;99.90
20670;DHT22;10494;50.868;4.180;2023-06-22T12:10:30;18.20;99.90
20670;DHT22;10494;50.868;4.180;2023-06-22T12:12:56;18.10;99.90
20670;DHT22;10494;50.868;4.180;2023-06-22T12:15:23;18.20;99.90
20670;DHT22;10494;50.868;4.180;2023-06-22T12:17:49;18.30;99.90
20670;DHT22;10494;50.868;4.180;2023-06-22T12:20:15;18.40;99.90
20670;DHT22;10494;50.868;4.180;2023-06-22T12:22:41;18.30;99.90
20670;DHT22;10494;50.868;4.180;2023-06-22T12:25:08;18.30;99.90
20670;DHT22;10494;50.868;4.180;2023-06-22T12:27:34;18.20;99.90
20670;DHT22;10494;50.868;4.180;2023-06-22T12:30:00;18.20;99.90
20670;DHT22;10494;50.868;4.180;2023-06-22T12:32:26;18.20;99.90
20670;DHT22;10494;50.868;4.180;2023-06-22T12:34:51;18.10;99.90
20670;DHT22;10494;50.868;4.180;2023-06-22T12:37:17;18.00;99.90
20670;DHT22;10494;50.868;4.180;2023-06-22T12:39:43;18.10;99.90
20670;DHT22;10494;50.868;4.180;2023-06-22T12:42:09;18.00;99.90
20670;DHT22;10494;50.868;4.180;2023-06-22T12:44:37;17.90;99.90
20670;DHT22;10494;50.868;4.180;2023-06-22T12:47:03;17.90;99.90
20670;DHT22;10494;50.868;4.180;2023-06-22T12:49:29;17.90;99.90
20670;DHT22;10494;50.868;4.180;2023-06-22T12:51:55;17.90;99.90
20670;DHT22;10494;50.868;4.180;2023-06-22T12:54:20;17.90;99.90
20670;DHT22;10494;50.868;4.180;2023-06-22T12:56:46;17.80;99.90
20670;DHT22;10494;50.868;4.180;2023-06-22T12:59:12;17.90;99.90
20670;DHT22;10494;50.868;4.180;2023-06-22T13:01:38;17.90;99.90
20670;DHT22;10494;50.868;4.180;2023-06-22T13:04:04;17.90;99.90
20670;DHT22;10494;50.868;4.180;2023-06-22T13:06:30;17.80;99.90
20670;DHT22;10494;50.868;4.180;2023-06-22T13:08:56;17.90;99.90
20670;DHT22;10494;50.868;4.180;2023-06-22T13:11:21;17.80;99.90
20670;DHT22;10494;50.868;4.180;2023-06-22T13:13:47;17.70;99.90
20670;DHT22;10494;50.868;4.180;2023-06-22T13:16:13;17.80;99.90
20670;DHT22;10494;50.868;4.180;2023-06-22T13:18:38;17.80;99.90
20670;DHT22;10494;50.868;4.180;2023-06-22T13:21:04;17.80;99.90
20670;DHT22;10494;50.868;4.180;2023-06-22T13:23:30;17.70;99.90
20670;DHT22;10494;50.868;4.180;2023-06-22T13:25:58;17.70;99.90
20670;DHT22;10494;50.868;4.180;2023-06-22T13:28:23;17.60;99.90
20670;DHT22;10494;50.868;4.180;2023-06-22T13:30:49;17.60;99.90
20670;DHT22;10494;50.868;4.180;2023-06-22T13:33:15;17.60;99.90
20670;DHT22;10494;50.868;4.180;2023-06-22T13:35:41;17.60;99.90
20670;DHT22;10494;50.868;4.180;2023-06-22T13:38:09;17.50;99.90
20670;DHT22;10494;50.868;4.180;2023-06-22T13:40:35;17.60;99.90
20670;DHT22;10494;50.868;4.180;2023-06-22T13:43:01;17.70;99.90
20670;DHT22;10494;50.868;4.180;2023-06-22T13:45:27;17.70;99.90
20670;DHT22;10494;50.868;4.180;2023-06-22T13:47:53;17.70;99.90
20670;DHT22;10494;50.868;4.180;2023-06-22T13:50:19;17.60;99.90
20670;DHT22;10494;50.868;4.180;2023-06-22T13:52:44;17.60;99.90
20670;DHT22;10494;50.868;4.180;2023-06-22T13:55:10;17.60;99.90
20670;DHT22;10494;50.868;4.180;2023-06-22T13:57:36;17.60;99.90
20670;DHT22;10494;50.868;4.180;2023-06-22T14:00:03;17.70;99.90
20670;DHT22;10494;50.868;4.180;2023-06-22T14:02:30;17.60;99.90
20670;DHT22;10494;50.868;4.180;2023-06-22T14:04:56;17.70;99.90
20670;DHT22;10494;50.868;4.180;2023-06-22T14:07:22;17.70;99.90
20670;DHT22;10494;50.868;4.180;2023-06-22T14:09:49;17.70;99.90
20670;DHT22;10494;50.868;4.180;2023-06-22T14:12:15;17.80;99.90
20670;DHT22;10494;50.868;4.180;2023-06-22T14:14:43;17.80;99.90
20670;DHT22;10494;50.868;4.180;2023-06-22T14:17:09;17.90;99.90
20670;DHT22;10494;50.868;4.180;2023-06-22T14:19:35;17.90;99.90
20670;DHT22;10494;50.868;4.180;2023-06-22T14:22:01;17.80;99.90
20670;DHT22;10494;50.868;4.180;2023-06-22T14:24:27;17.90;99.90
20670;DHT22;10494;50.868;4.180;2023-06-22T14:26:54;17.90;99.90
20670;DHT22;10494;50.868;4.180;2023-06-22T14:29:20;17.90;99.90
20670;DHT22;10494;50.868;4.180;2023-06-22T14:31:46;17.90;99.90
20670;DHT22;10494;50.868;4.180;2023-06-22T14:34:12;17.90;99.90
20670;DHT22;10494;50.868;4.180;2023-06-22T14:36:37;17.90;99.90
20670;DHT22;10494;50.868;4.180;2023-06-22T14:39:03;18.00;99.90
20670;DHT22;10494;50.868;4.180;2023-06-22T14:41:30;18.00;99.90
20670;DHT22;10494;50.868;4.180;2023-06-22T14:43:56;17.90;99.90
20670;DHT22;10494;50.868;4.180;2023-06-22T14:46:22;17.90;99.90
20670;DHT22;10494;50.868;4.180;2023-06-22T14:48:48;18.00;99.90
20670;DHT22;10494;50.868;4.180;2023-06-22T14:51:13;17.90;99.90
20670;DHT22;10494;50.868;4.180;2023-06-22T14:53:40;17.90;99.90
20670;DHT22;10494;50.868;4.180;2023-06-22T14:56:05;17.90;99.90
20670;DHT22;10494;50.868;4.180;2023-06-22T14:58:32;17.90;99.90
20670;DHT22;10494;50.868;4.180;2023-06-22T15:01:04;17.90;99.90
20670;DHT22;10494;50.868;4.180;2023-06-22T15:03:30;18.00;99.90
20670;DHT22;10494;50.868;4.180;2023-06-22T15:06:00;17.90;99.90
20670;DHT22;10494;50.868;4.180;2023-06-22T15:08:26;18.00;99.90
20670;DHT22;10494;50.868;4.180;2023-06-22T15:10:52;18.00;99.90
20670;DHT22;10494;50.868;4.180;2023-06-22T15:13:18;18.10;99.90
20670;DHT22;10494;50.868;4.180;2023-06-22T15:15:45;18.00;99.90
20670;DHT22;10494;50.868;4.180;2023-06-22T15:18:12;18.10;99.90
20670;DHT22;10494;50.868;4.180;2023-06-22T15:20:38;18.20;99.90
20670;DHT22;10494;50.868;4.180;2023-06-22T15:23:03;18.30;99.90
20670;DHT22;10494;50.868;4.180;2023-06-22T15:25:29;18.40;99.90
20670;DHT22;10494;50.868;4.180;2023-06-22T15:27:54;18.40;99.90
20670;DHT22;10494;50.868;4.180;2023-06-22T15:30:20;18.50;99.90